Time;durP1;ratioP1;P1;durP2;ratioP2;P2;SDS_P1;SDS_P2;PMS_P1;PMS_P2;Temp;Humidity;BMP_temperature;BMP_pressure;BME280_temperature;BME280_humidity;BME280_pressure;Samples;Min_cycle;Max_cycle;Signal;HPM_P1;HPM_P2
2022/09/08 00:00:20;;;;;;;15.57;13.27;;;;;;;-148.88;89.92;74753.63;5034937;28;20029;-78
2022/09/08 00:02:45;;;;;;;15.77;14.18;;;;;;;-148.88;91.13;74757.69;5035019;28;20082;-77
2022/09/08 00:05:14;;;;;;;16.92;14.50;;;;;;;-148.88;91.24;74753.63;5035050;28;20067;-78
2022/09/08 00:07:42;;;;;;;18.25;15.88;;;;;;;-148.88;91.57;74761.75;5034851;28;20025;-77
2022/09/08 00:10:08;;;;;;;16.00;14.30;;;;;;;-148.88;91.25;74753.63;5035413;28;20027;-78
2022/09/08 00:12:34;;;;;;;17.85;14.88;;;;;;;-148.88;91.02;74749.56;5034991;28;20018;-78
2022/09/08 00:15:00;;;;;;;16.13;14.10;;;;;;;-148.88;90.79;74753.63;5034603;28;20112;-78
2022/09/08 00:17:27;;;;;;;16.98;15.18;;;;;;;-148.88;91.02;74757.69;5034849;28;20140;-78
2022/09/08 00:19:53;;;;;;;19.25;14.20;;;;;;;-148.88;91.21;74751.59;5034616;28;20484;-78
2022/09/08 00:22:18;;;;;;;17.13;15.32;;;;;;;-148.88;90.95;74741.44;5034795;28;20120;-78
2022/09/08 00:24:43;;;;;;;18.45;16.65;;;;;;;-148.88;91.17;74743.47;5033211;28;20381;-78
2022/09/08 00:27:08;;;;;;;17.83;15.93;;;;;;;-148.88;91.00;74739.41;5034563;28;20427;-78
2022/09/08 00:29:34;;;;;;;18.58;16.65;;;;;;;-148.88;91.29;74741.44;5035151;28;20048;-78
2022/09/08 00:32:00;;;;;;;18.02;15.80;;;;;;;-148.88;90.65;74741.44;5034905;28;20025;-78
2022/09/08 00:34:25;;;;;;;22.42;19.20;;;;;;;-148.88;91.13;74767.84;5033319;28;20072;-78
2022/09/08 00:36:51;;;;;;;20.42;18.30;;;;;;;-148.88;91.95;74790.19;5034179;28;20152;-78
2022/09/08 00:39:17;;;;;;;24.85;19.88;;;;;;;-148.88;93.69;74806.44;5034093;28;20088;-78
2022/09/08 00:41:42;;;;;;;21.13;18.92;;;;;;;-148.88;94.15;74802.38;5032799;28;20029;-78
2022/09/08 00:44:48;;;;;;;20.98;18.65;;;;;;;-148.88;94.22;74790.19;5034725;28;20539;-78
2022/09/08 00:47:33;;;;;;;19.55;17.48;;;;;;;-148.88;93.70;74778.00;5037910;28;20522;-78
2022/09/08 00:50:08;;;;;;;18.98;17.08;;;;;;;-148.88;92.58;74782.06;5041059;28;20053;-77
2022/09/08 00:52:47;;;;;;;19.48;17.40;;;;;;;-148.88;93.53;74788.16;5039506;28;20037;-76
2022/09/08 00:55:14;;;;;;;19.55;17.55;;;;;;;-148.88;94.09;74802.38;5039638;28;20538;-77
2022/09/08 00:57:39;;;;;;;19.30;17.23;;;;;;;-148.88;94.24;74792.22;5039133;28;20503;-78
2022/09/08 01:00:07;;;;;;;22.23;18.25;;;;;;;-148.88;93.65;74794.25;5040323;28;20027;-79
2022/09/08 01:02:33;;;;;;;18.83;16.80;;;;;;;-148.88;93.73;74788.16;5040036;28;20079;-78
2022/09/08 01:05:04;;;;;;;19.83;17.50;;;;;;;-148.88;93.36;74775.97;5039971;28;20474;-78
2022/09/08 01:13:35;;;;;;;18.50;16.20;;;;;;;-148.88;91.80;74780.03;5035895;28;20061;-78
2022/09/08 01:16:01;;;;;;;17.75;15.30;;;;;;;-148.88;91.83;74778.00;5037470;28;20028;-78
2022/09/08 01:18:26;;;;;;;20.98;18.77;;;;;;;-148.88;92.28;74769.88;5037698;28;20029;-78
2022/09/08 01:21:13;;;;;;;23.15;20.73;;;;;;;-148.88;92.91;74761.75;5038395;28;20026;-78
2022/09/08 01:24:06;;;;;;;25.77;23.02;;;;;;;-148.88;93.07;74757.69;5038403;28;20026;-78
2022/09/08 01:26:45;;;;;;;25.05;22.17;;;;;;;-148.88;93.20;74755.66;5039385;28;20023;-76
2022/09/08 01:29:14;;;;;;;23.98;21.30;;;;;;;-148.88;93.42;74755.66;5038840;28;20116;-77
2022/09/08 01:31:42;;;;;;;23.40;20.90;;;;;;;-148.88;93.56;74749.56;5037910;28;20479;-78
2022/09/08 01:34:08;;;;;;;24.83;21.15;;;;;;;-148.88;93.53;74753.63;5039298;28;20083;-77
2022/09/08 01:36:33;;;;;;;22.55;20.25;;;;;;;-148.88;93.53;74757.69;5037534;28;20025;-77
2022/09/08 01:38:59;;;;;;;21.70;19.42;;;;;;;-148.88;93.56;74753.63;5038931;28;20041;-77
2022/09/08 01:41:24;;;;;;;21.17;18.98;;;;;;;-148.88;93.65;74753.63;5038069;28;20022;-78
2022/09/08 01:43:49;;;;;;;21.77;19.33;;;;;;;-148.88;93.79;74753.63;5037615;28;20025;-77
2022/09/08 01:46:15;;;;;;;23.02;20.73;;;;;;;-148.88;93.78;74755.66;5038331;28;20022;-78
2022/09/08 01:48:40;;;;;;;24.25;21.65;;;;;;;-148.88;93.72;74759.72;5038601;28;20017;-78
2022/09/08 01:51:07;;;;;;;26.85;23.55;;;;;;;-148.88;93.98;74765.81;5037523;28;20405;-76
2022/09/08 01:53:33;;;;;;;27.83;23.75;;;;;;;-148.88;94.03;74773.94;5036937;28;20032;-77
2022/09/08 01:55:58;;;;;;;29.27;24.38;;;;;;;-148.88;94.26;74773.94;5036048;28;20049;-78
2022/09/08 01:58:26;;;;;;;26.50;23.73;;;;;;;-148.88;94.41;74765.81;5038444;28;20048;-78
2022/09/08 02:00:51;;;;;;;26.98;22.90;;;;;;;-148.88;94.34;74765.81;5037242;28;20028;-78
2022/09/08 02:03:17;;;;;;;25.08;22.40;;;;;;;-148.88;94.37;74767.84;5038559;28;20029;-77
2022/09/08 02:05:43;;;;;;;26.08;22.58;;;;;;;-148.88;94.51;74761.75;5039118;28;20036;-78
2022/09/08 02:08:10;;;;;;;26.08;23.00;;;;;;;-148.88;94.54;74753.63;5037909;28;20032;-77
2022/09/08 02:10:36;;;;;;;28.83;24.02;;;;;;;-148.88;94.83;74753.63;5039027;28;20499;-77
2022/09/08 02:13:02;;;;;;;29.55;25.38;;;;;;;-148.88;95.40;74747.53;5038975;28;20029;-77
2022/09/08 02:15:28;;;;;;;27.65;24.65;;;;;;;-148.88;95.76;74739.41;5037592;28;20468;-77
2022/09/08 02:17:53;;;;;;;29.83;24.95;;;;;;;-148.88;95.55;74735.34;5038345;28;20045;-78
2022/09/08 02:20:21;;;;;;;29.90;24.85;;;;;;;-148.88;95.14;74733.31;5037942;28;20116;-78
2022/09/08 02:22:46;;;;;;;28.58;25.13;;;;;;;-148.88;94.96;74747.53;5037144;28;20460;-77
2022/09/08 02:25:12;;;;;;;26.80;23.05;;;;;;;-148.88;95.13;74745.50;5037852;28;20033;-77
2022/09/08 02:27:37;;;;;;;25.05;22.17;;;;;;;-148.88;95.18;74745.50;5037669;28;20159;-78
2022/09/08 02:30:03;;;;;;;24.77;22.08;;;;;;;-148.88;94.97;74741.44;5036869;28;20018;-78
2022/09/08 02:32:28;;;;;;;25.30;22.55;;;;;;;-148.88;95.23;74737.38;5036544;28;20021;-77
2022/09/08 02:34:54;;;;;;;23.52;21.00;;;;;;;-148.88;95.53;74745.50;5037854;28;20475;-78
2022/09/08 02:37:19;;;;;;;22.75;20.45;;;;;;;-148.88;95.57;74739.41;5037358;28;20034;-76
2022/09/08 02:39:45;;;;;;;24.25;21.42;;;;;;;-148.88;95.43;74735.34;5035969;28;20064;-76
2022/09/08 02:42:11;;;;;;;25.10;22.50;;;;;;;-148.88;95.51;74733.31;5036890;28;20109;-77
2022/09/08 02:44:37;;;;;;;26.80;22.77;;;;;;;-148.88;95.29;74741.44;5037829;28;20049;-77
2022/09/08 02:47:02;;;;;;;27.80;22.58;;;;;;;-148.88;95.62;74741.44;5037567;28;20063;-76
2022/09/08 02:49:30;;;;;;;27.95;23.75;;;;;;;-148.88;95.57;74737.38;5037657;28;20025;-76
2022/09/08 02:51:55;;;;;;;27.60;24.48;;;;;;;-148.88;95.96;74737.38;5036392;28;20025;-77
2022/09/08 02:54:20;;;;;;;28.13;25.23;;;;;;;-148.88;95.94;74741.44;5037725;28;20071;-77
2022/09/08 02:56:46;;;;;;;32.50;26.05;;;;;;;-148.88;95.94;74745.50;5035659;28;20022;-78
2022/09/08 02:59:11;;;;;;;30.38;26.75;;;;;;;-148.88;96.08;74737.38;5036035;28;20048;-78
2022/09/08 03:01:36;;;;;;;29.83;26.08;;;;;;;-148.88;96.29;74741.44;5035633;28;20048;-76
2022/09/08 03:04:02;;;;;;;33.30;26.73;;;;;;;-148.88;96.03;74733.31;5036996;28;20017;-76
2022/09/08 03:06:28;;;;;;;31.67;25.65;;;;;;;-148.88;96.25;74731.28;5036909;28;20104;-77
2022/09/08 03:08:54;;;;;;;29.48;26.10;;;;;;;-148.88;95.65;74745.50;5035598;28;20029;-77
2022/09/08 03:11:19;;;;;;;31.30;27.08;;;;;;;-148.88;96.26;74759.72;5035194;28;20042;-78
2022/09/08 03:13:44;;;;;;;27.00;24.02;;;;;;;-148.88;97.08;74778.00;5036374;28;20443;-78
2022/09/08 03:16:10;;;;;;;29.00;23.90;;;;;;;-148.88;97.31;74782.06;5035194;28;20045;-77
2022/09/08 03:18:35;;;;;;;27.85;23.33;;;;;;;-148.88;97.40;74784.09;5036202;28;20125;-76
2022/09/08 03:21:04;;;;;;;27.30;24.05;;;;;;;-148.88;97.42;74780.03;5037577;28;20387;-77
2022/09/08 03:23:30;;;;;;;28.67;24.25;;;;;;;-148.88;97.80;74765.81;5036835;28;20454;-78
2022/09/08 03:26:00;;;;;;;30.45;25.73;;;;;;;-148.88;97.35;74775.97;5037367;28;20029;-77
2022/09/08 03:28:25;;;;;;;30.30;26.30;;;;;;;-148.88;97.95;74780.03;5037121;28;20037;-78
2022/09/08 03:30:51;;;;;;;30.17;26.67;;;;;;;-148.88;98.08;74782.06;5037539;28;20403;-78
2022/09/08 03:33:17;;;;;;;27.85;24.23;;;;;;;-148.88;97.56;74796.28;5035230;28;20075;-77
2022/09/08 03:35:43;;;;;;;28.40;24.83;;;;;;;-148.88;98.31;74798.31;5037140;28;20053;-78
2022/09/08 03:38:08;;;;;;;27.20;24.25;;;;;;;-148.88;98.34;74788.16;5036339;28;20076;-77
2022/09/08 03:40:34;;;;;;;25.75;23.05;;;;;;;-148.88;97.92;74790.19;5037186;28;20029;-78
2022/09/08 03:43:00;;;;;;;30.08;23.70;;;;;;;-148.88;97.90;74775.97;5035464;28;20444;-77
2022/09/08 03:45:25;;;;;;;27.38;23.70;;;;;;;-148.88;97.53;74775.97;5034234;28;20538;-77
2022/09/08 03:47:51;;;;;;;26.90;23.77;;;;;;;-148.88;97.73;74767.84;5031847;28;20029;-76
2022/09/08 03:50:17;;;;;;;29.95;25.02;;;;;;;-148.88;97.56;74757.69;5033157;28;20021;-77
2022/09/08 03:52:43;;;;;;;31.48;27.35;;;;;;;-148.88;97.53;74741.44;5033695;28;20460;-76
2022/09/08 03:55:09;;;;;;;32.67;28.52;;;;;;;-148.88;97.54;74731.28;5032419;28;20071;-77
2022/09/08 03:57:35;;;;;;;31.65;26.35;;;;;;;-148.88;97.47;74727.22;5033077;28;20124;-77
2022/09/08 04:00:02;;;;;;;29.27;26.13;;;;;;;-148.88;97.25;74717.06;5031800;28;20470;-77
2022/09/08 04:02:29;;;;;;;31.30;26.23;;;;;;;-148.88;97.20;74725.19;5031619;28;20389;-77
2022/09/08 04:04:57;;;;;;;30.02;26.77;;;;;;;-148.88;97.42;74731.28;5031584;28;20063;-77
2022/09/08 04:07:26;;;;;;;31.00;26.85;;;;;;;-148.88;97.57;74708.94;5032817;28;20428;-77
2022/09/08 04:09:52;;;;;;;28.90;25.55;;;;;;;-148.88;97.63;74708.94;5031659;28;20029;-77
2022/09/08 04:12:17;;;;;;;29.95;26.27;;;;;;;-148.88;97.45;74715.03;5031598;28;20028;-77
2022/09/08 04:14:45;;;;;;;28.25;25.33;;;;;;;-148.88;97.39;74717.06;5032561;28;20399;-77
2022/09/08 04:17:11;;;;;;;29.65;24.85;;;;;;;-148.88;97.32;74713.00;5032725;28;20095;-77
2022/09/08 04:19:36;;;;;;;27.48;24.58;;;;;;;-148.88;97.42;74713.00;5035285;28;20398;-76
2022/09/08 04:22:01;;;;;;;28.48;24.67;;;;;;;-148.88;97.32;74715.03;5039504;28;20029;-76
2022/09/08 04:24:27;;;;;;;27.88;24.70;;;;;;;-148.88;97.79;74708.94;5038611;28;20475;-77
2022/09/08 04:26:52;;;;;;;28.55;23.52;;;;;;;-148.88;97.63;74708.94;5039210;28;20032;-76
2022/09/08 04:29:18;;;;;;;27.92;24.15;;;;;;;-148.88;97.63;74704.88;5039634;28;20026;-76
2022/09/08 04:31:44;;;;;;;26.05;23.33;;;;;;;-148.88;97.43;74704.88;5039882;28;20030;-75
2022/09/08 04:34:10;;;;;;;27.88;24.13;;;;;;;-148.88;97.40;74696.78;5039464;28;20021;-75
2022/09/08 04:36:35;;;;;;;27.08;24.13;;;;;;;-148.88;97.32;74698.78;5039530;28;20021;-76
2022/09/08 04:39:00;;;;;;;28.73;25.52;;;;;;;-148.88;96.99;74692.72;5039456;28;20056;-76
2022/09/08 04:41:30;;;;;;;29.27;24.73;;;;;;;-148.88;97.29;74692.72;5038020;28;20108;-76
2022/09/08 04:44:00;;;;;;;28.00;24.38;;;;;;;-148.88;97.20;74688.66;5037806;28;20503;-75
2022/09/08 04:46:26;;;;;;;29.90;24.92;;;;;;;-148.88;97.18;74692.72;5039430;28;20120;-77
2022/09/08 04:48:52;;;;;;;29.73;25.90;;;;;;;-148.88;97.04;74684.59;5039024;28;20455;-77
2022/09/08 04:51:18;;;;;;;29.90;24.67;;;;;;;-148.88;97.08;74686.63;5037662;28;20102;-77
2022/09/08 04:53:44;;;;;;;27.98;24.80;;;;;;;-148.88;96.86;74684.59;5039546;28;20025;-77
2022/09/08 04:56:13;;;;;;;28.73;25.45;;;;;;;-148.88;96.83;74684.59;5038753;28;20021;-77
2022/09/08 04:58:41;;;;;;;29.95;24.60;;;;;;;-148.88;96.78;74686.63;5039026;28;20030;-77
2022/09/08 05:01:10;;;;;;;27.90;23.38;;;;;;;-148.88;97.11;74684.59;5037633;28;20025;-77
2022/09/08 05:03:36;;;;;;;26.90;23.50;;;;;;;-148.88;96.98;74682.56;5038846;28;20113;-77
2022/09/08 05:06:15;;;;;;;25.92;23.17;;;;;;;-148.88;96.69;74688.66;5039013;28;20032;-77
2022/09/08 05:08:54;;;;;;;26.10;23.27;;;;;;;-148.88;96.60;74690.69;5039806;28;20025;-77
2022/09/08 05:11:19;;;;;;;26.00;23.23;;;;;;;-148.88;96.76;74704.88;5039752;28;20021;-77
2022/09/08 05:13:45;;;;;;;27.13;23.27;;;;;;;-148.88;97.07;74694.75;5040674;28;20407;-78
2022/09/08 05:16:19;;;;;;;26.95;23.38;;;;;;;-148.88;97.39;74692.72;5041002;28;20025;-79
2022/09/08 05:18:49;;;;;;;29.10;23.30;;;;;;;-148.88;97.13;74686.63;5042400;28;20030;-79
2022/09/08 05:21:16;;;;;;;29.27;24.85;;;;;;;-148.88;97.02;74672.41;5042400;28;20037;-79
2022/09/08 05:23:42;;;;;;;27.52;23.58;;;;;;;-148.88;96.79;74676.47;5041711;28;20064;-79
2022/09/08 05:26:12;;;;;;;27.88;24.10;;;;;;;-148.88;96.64;74670.38;5041465;28;20036;-79
2022/09/08 05:28:39;;;;;;;26.88;24.02;;;;;;;-148.88;96.64;74668.34;5041689;28;20159;-79
2022/09/08 05:31:06;;;;;;;27.45;23.42;;;;;;;-148.88;96.71;74676.47;5038236;28;20021;-79
2022/09/08 05:33:32;;;;;;;27.77;24.05;;;;;;;-148.88;96.57;74672.41;5038463;28;20034;-79
2022/09/08 05:35:58;;;;;;;30.63;24.60;;;;;;;-148.88;96.62;74676.47;5037014;28;20395;-78
2022/09/08 05:38:23;;;;;;;26.77;23.60;;;;;;;-148.88;96.69;74664.28;5037490;28;20116;-78
2022/09/08 05:40:49;;;;;;;29.83;23.98;;;;;;;-148.88;96.77;74656.16;5036757;28;20395;-78
2022/09/08 05:43:16;;;;;;;28.65;24.38;;;;;;;-148.88;96.52;74654.13;5037992;28;20100;-78
2022/09/08 05:45:49;;;;;;;27.88;24.08;;;;;;;-148.88;96.38;74654.13;5038465;28;20048;-78
2022/09/08 05:48:14;;;;;;;27.35;23.13;;;;;;;-148.88;96.25;74639.91;5038876;28;20036;-78
2022/09/08 05:50:44;;;;;;;27.00;24.05;;;;;;;-148.88;96.28;74643.97;5039054;28;20431;-78
2022/09/08 05:53:10;;;;;;;27.73;23.83;;;;;;;-148.88;96.28;74643.97;5037144;28;20021;-78
2022/09/08 05:55:35;;;;;;;26.98;23.67;;;;;;;-148.88;96.37;74646.00;5038377;28;20051;-79
2022/09/08 05:58:00;;;;;;;28.60;24.00;;;;;;;-148.88;96.19;74643.97;5039184;28;20029;-78
2022/09/08 06:00:25;;;;;;;29.27;24.05;;;;;;;-148.88;96.19;74648.03;5036979;28;20022;-78
2022/09/08 06:02:52;;;;;;;26.77;23.63;;;;;;;-148.88;96.23;74686.63;5073191;22;20124;-86
2022/09/08 06:05:21;;;;;;;30.23;24.98;;;;;;;-148.88;97.18;74704.88;5034785;28;20057;-87
2022/09/08 06:07:47;;;;;;;32.08;25.70;;;;;;;-148.88;97.88;74694.75;5033654;28;20491;-86
2022/09/08 06:10:13;;;;;;;30.77;26.25;;;;;;;-148.88;97.83;74698.78;5034810;28;20022;-86
2022/09/08 06:12:39;;;;;;;29.73;26.10;;;;;;;-148.88;97.97;74696.78;5035067;28;20040;-86
2022/09/08 06:15:05;;;;;;;30.30;24.60;;;;;;;-148.88;97.78;74692.72;5034734;28;20033;-87
2022/09/08 06:17:31;;;;;;;33.33;25.33;;;;;;;-148.88;97.60;74686.63;5033464;28;20464;-86
2022/09/08 06:19:56;;;;;;;29.58;24.08;;;;;;;-148.88;97.36;74696.78;5033981;28;20036;-86
2022/09/08 06:22:22;;;;;;;28.02;24.50;;;;;;;-148.88;97.50;74680.53;5033452;28;20079;-88
2022/09/08 06:24:48;;;;;;;28.90;23.05;;;;;;;-148.88;96.81;74672.41;5034484;28;20479;-86
2022/09/08 06:27:26;;;;;;;25.52;22.83;;;;;;;-148.88;96.46;74666.31;5035694;28;20083;-86
2022/09/08 06:30:24;;;;;;;27.13;23.58;;;;;;;-148.88;96.07;74672.41;5034555;28;20029;-86
2022/09/08 06:33:00;;;;;;;28.08;22.38;;;;;;;-148.88;96.46;74658.19;5033298;28;20033;-86
2022/09/08 06:35:50;;;;;;;26.38;23.38;;;;;;;-148.88;96.63;74656.16;5034300;28;20033;-86
2022/09/08 06:38:26;;;;;;;29.52;22.27;;;;;;;-148.88;96.30;74652.09;5034600;28;20030;-86
2022/09/08 06:41:04;;;;;;;24.92;22.13;;;;;;;-148.88;95.87;74633.81;5034236;28;20148;-86
2022/09/08 06:43:39;;;;;;;24.30;21.55;;;;;;;-148.88;95.59;74627.72;5033926;28;20041;-86
2022/09/08 06:46:11;;;;;;;24.90;21.23;;;;;;;-148.88;95.43;74627.72;5034268;28;20400;-86
2022/09/08 06:48:37;;;;;;;25.17;22.00;;;;;;;-148.88;96.12;74652.09;5033331;28;20435;-87
2022/09/08 06:51:28;;;;;;;25.48;21.77;;;;;;;-148.88;96.17;74643.97;5032686;28;20467;-86
2022/09/08 06:54:28;;;;;;;23.98;21.15;;;;;;;-148.88;96.30;74615.53;5033847;28;20443;-87
2022/09/08 06:56:56;;;;;;;26.85;22.35;;;;;;;-148.88;95.84;74607.41;5032776;28;20360;-87
2022/09/08 06:59:48;;;;;;;24.08;21.48;;;;;;;-148.88;95.13;74603.34;5034025;28;20514;-87
2022/09/08 07:02:32;;;;;;;23.27;20.85;;;;;;;-148.88;95.00;74587.13;5032755;28;20025;-86
2022/09/08 07:05:38;;;;;;;24.92;21.65;;;;;;;-148.88;95.47;74583.06;5032443;28;20040;-86
2022/09/08 07:08:15;;;;;;;26.13;21.42;;;;;;;-148.88;95.33;74581.03;5032389;28;20079;-86
2022/09/08 07:11:12;;;;;;;24.88;20.83;;;;;;;-148.88;95.15;74581.03;5033548;28;20434;-86
2022/09/08 07:13:50;;;;;;;25.85;21.58;;;;;;;-148.88;94.77;74585.09;5032132;28;20120;-86
2022/09/08 07:16:37;;;;;;;23.60;21.10;;;;;;;-148.88;94.37;74583.06;5033629;28;20030;-87
2022/09/08 07:19:14;;;;;;;23.77;20.58;;;;;;;-148.88;94.74;74583.06;5032170;28;20056;-87
2022/09/08 07:21:56;;;;;;;22.90;19.92;;;;;;;-148.88;95.43;74589.16;5032016;28;20116;-86
2022/09/08 07:24:27;;;;;;;22.23;19.23;;;;;;;-148.88;95.81;74583.06;5033170;28;20025;-86
2022/09/08 07:26:59;;;;;;;22.40;19.67;;;;;;;-148.88;95.64;74574.94;5033236;28;20017;-86
2022/09/08 07:29:30;;;;;;;20.90;18.70;;;;;;;-148.88;96.02;74574.94;5033392;28;20402;-86
2022/09/08 07:31:57;;;;;;;20.00;17.75;;;;;;;-148.88;96.38;74572.91;5033388;28;20051;-87
2022/09/08 07:34:26;;;;;;;20.35;18.15;;;;;;;-148.88;96.82;74579.00;5033186;28;20036;-87
2022/09/08 07:37:04;;;;;;;21.58;19.05;;;;;;;-148.88;97.85;74570.88;5033245;28;20480;-86
2022/09/08 07:39:50;;;;;;;20.13;18.02;;;;;;;-148.88;97.84;74579.00;5032017;28;20040;-86
2022/09/08 07:42:16;;;;;;;20.27;17.08;;;;;;;-148.88;98.65;74579.00;5033095;28;20108;-87
2022/09/08 07:44:42;;;;;;;21.08;17.73;;;;;;;-148.88;98.75;74591.19;5032828;28;20028;-86
2022/09/08 07:47:25;;;;;;;21.13;17.83;;;;;;;-148.88;99.40;74593.22;5032885;28;20017;-87
2022/09/08 07:50:18;;;;;;;21.65;17.98;;;;;;;-148.88;99.69;74597.25;5032662;28;20029;-86
2022/09/08 07:53:09;;;;;;;20.83;17.63;;;;;;;-148.88;100.00;74597.25;5032882;28;20064;-86
2022/09/08 07:55:42;;;;;;;20.52;17.30;;;;;;;-148.88;100.00;74603.34;5030729;28;20040;-86
2022/09/08 07:58:34;;;;;;;22.65;16.88;;;;;;;-148.88;100.00;74613.50;5031736;28;20033;-86
2022/09/08 08:01:25;;;;;;;18.50;15.75;;;;;;;-148.88;100.00;74611.47;5031281;28;20029;-85
2022/09/08 08:04:01;;;;;;;19.13;16.33;;;;;;;-148.88;100.00;74623.66;5032552;28;20037;-85
2022/09/08 08:06:38;;;;;;;19.85;16.23;;;;;;;-148.88;100.00;74635.84;5041593;28;20041;-86
2022/09/08 08:09:41;;;;;;;22.13;16.83;;;;;;;-148.88;100.00;74627.72;5039734;28;20028;-86
2022/09/08 08:12:42;;;;;;;17.65;15.48;;;;;;;-148.88;100.00;74623.66;5033335;28;20086;-86
2022/09/08 08:15:32;;;;;;;18.58;16.38;;;;;;;-148.88;100.00;74627.72;5031830;28;20025;-87
2022/09/08 08:18:22;;;;;;;20.85;16.95;;;;;;;-148.88;100.00;74639.91;5032930;28;20064;-86
2022/09/08 08:20:58;;;;;;;21.02;16.15;;;;;;;-148.88;100.00;74627.72;5033235;28;20030;-86
2022/09/08 08:23:42;;;;;;;20.48;16.40;;;;;;;-148.88;100.00;74627.72;5032154;28;20505;-86
2022/09/08 08:26:34;;;;;;;17.77;15.23;;;;;;;-148.88;100.00;74631.78;5033460;28;20092;-86
2022/09/08 08:29:21;;;;;;;16.42;13.93;;;;;;;-148.88;100.00;74631.78;5032095;28;20040;-86
2022/09/08 08:32:08;;;;;;;16.35;12.98;;;;;;;-148.88;100.00;74646.00;5033149;28;20021;-86
2022/09/08 08:34:40;;;;;;;13.68;12.18;;;;;;;-148.88;100.00;74621.63;5033066;28;20535;-87
2022/09/08 08:37:12;;;;;;;14.07;11.77;;;;;;;-148.88;100.00;74643.97;5031649;28;20048;-86
2022/09/08 08:39:39;;;;;;;13.38;11.75;;;;;;;-148.88;100.00;74631.78;5031702;28;20049;-86
2022/09/08 08:42:19;;;;;;;13.15;11.75;;;;;;;-148.88;100.00;74627.72;5032653;28;20065;-86
2022/09/08 08:45:06;;;;;;;15.05;12.43;;;;;;;-148.88;100.00;74629.75;5032566;28;20026;-86
2022/09/08 08:47:58;;;;;;;13.68;12.27;;;;;;;-148.88;100.00;74607.41;5031168;28;20033;-86
2022/09/08 08:50:38;;;;;;;15.15;13.55;;;;;;;-148.88;100.00;74607.41;5032814;28;20029;-86
2022/09/08 08:53:29;;;;;;;14.65;13.15;;;;;;;-148.88;100.00;74595.25;5032642;28;20041;-87
2022/09/08 08:56:07;;;;;;;15.73;14.02;;;;;;;-148.88;100.00;74609.44;5032801;28;20026;-87
2022/09/08 08:59:04;;;;;;;15.90;14.25;;;;;;;-148.88;100.00;74599.28;5031684;28;20029;-86
2022/09/08 09:01:51;;;;;;;16.42;14.77;;;;;;;-148.88;100.00;74605.38;5032645;28;20024;-85
2022/09/08 09:04:53;;;;;;;18.20;15.38;;;;;;;-148.88;100.00;74615.53;5031342;28;20037;-87
2022/09/08 09:07:50;;;;;;;16.15;14.45;;;;;;;-148.88;100.00;74609.44;5033584;28;20079;-87
2022/09/08 09:10:47;;;;;;;17.30;15.55;;;;;;;-148.88;100.00;74621.63;5036414;28;20392;-87
2022/09/08 09:13:38;;;;;;;16.35;14.60;;;;;;;-148.88;100.00;74619.59;5036203;28;20029;-86
2022/09/08 09:16:36;;;;;;;17.85;15.30;;;;;;;-148.88;100.00;74617.56;5035137;28;20506;-86
2022/09/08 09:19:18;;;;;;;20.35;16.70;;;;;;;-148.88;100.00;74611.47;5035195;28;20036;-86
2022/09/08 09:21:52;;;;;;;18.80;16.30;;;;;;;-148.88;100.00;74609.44;5035628;28;20098;-86
2022/09/08 09:24:45;;;;;;;18.10;15.98;;;;;;;-148.88;100.00;74619.59;5034868;28;20084;-86
2022/09/08 09:27:17;;;;;;;18.48;16.60;;;;;;;-148.88;100.00;74611.47;5036283;28;20068;-86
2022/09/08 09:29:42;;;;;;;19.33;17.33;;;;;;;-148.88;100.00;74607.41;5034964;28;20021;-87
2022/09/08 09:32:37;;;;;;;18.15;16.17;;;;;;;-148.88;100.00;74601.31;5035245;28;20113;-86
2022/09/08 09:35:30;;;;;;;18.92;17.02;;;;;;;-148.88;100.00;74595.25;5035189;28;20458;-86
2022/09/08 09:38:06;;;;;;;18.05;16.25;;;;;;;-148.88;100.00;74595.25;5036022;28;20021;-87
2022/09/08 09:40:37;;;;;;;17.90;16.10;;;;;;;-148.88;100.00;74589.16;5035784;28;20029;-86
2022/09/08 09:43:54;;;;;;;17.30;15.63;;;;;;;-148.88;100.00;74599.28;5035690;28;20064;-86
2022/09/08 09:46:54;;;;;;;16.77;15.07;;;;;;;-148.88;100.00;74591.19;5036568;28;20457;-86
2022/09/08 09:49:48;;;;;;;17.50;15.80;;;;;;;-148.88;100.00;74593.22;5035304;28;20467;-86
2022/09/08 09:52:25;;;;;;;17.40;15.73;;;;;;;-148.88;100.00;74593.22;5034262;28;20041;-87
2022/09/08 09:54:59;;;;;;;16.08;14.48;;;;;;;-148.88;100.00;74595.25;5035682;28;20037;-86
2022/09/08 09:57:24;;;;;;;;;;;;;;;-148.88;100.00;74593.22;5035870;28;20030;-86
2022/09/08 09:59:58;;;;;;;18.55;15.20;;;;;;;-148.88;100.00;74589.16;5035457;28;19936;-87
2022/09/08 10:03:20;;;;;;;21.15;17.02;;;;;;;-148.88;100.00;74576.97;5035638;28;20086;-87
2022/09/08 10:05:51;;;;;;;18.90;16.92;;;;;;;-148.88;100.00;74579.00;5016817;28;20022;-87
2022/09/08 10:09:00;;;;;;;18.38;16.58;;;;;;;-148.88;100.00;74574.94;5047763;28;20091;-87
2022/09/08 10:12:12;;;;;;;17.35;15.55;;;;;;;-148.88;100.00;74579.00;5036383;28;20075;-86
2022/09/08 10:15:09;;;;;;;17.45;15.75;;;;;;;-148.88;100.00;74579.00;5034877;28;20580;-87
2022/09/08 10:18:12;;;;;;;17.23;15.48;;;;;;;-148.88;100.00;74585.09;5034036;28;20065;-86
2022/09/08 10:21:05;;;;;;;16.92;15.32;;;;;;;-148.88;100.00;74572.91;5035608;28;20450;-87
2022/09/08 10:23:49;;;;;;;17.08;15.30;;;;;;;-148.88;100.00;74576.97;5035027;28;20048;-86
2022/09/08 10:26:35;;;;;;;17.08;15.45;;;;;;;-148.88;100.00;74570.88;5033760;28;20071;-87
2022/09/08 10:29:20;;;;;;;18.05;15.55;;;;;;;-148.88;100.00;74579.00;5033478;28;20475;-87
2022/09/08 10:32:14;;;;;;;18.15;16.40;;;;;;;-148.88;100.00;74583.06;5033768;28;20029;-86
2022/09/08 10:35:12;;;;;;;;;;;;;;;-148.88;100.00;74579.00;5035070;28;20053;-87
2022/09/08 10:37:56;;;;;;;18.98;17.17;;;;;;;-148.88;100.00;74574.94;5034840;28;19913;-86
2022/09/08 10:40:25;;;;;;;19.13;17.10;;;;;;;-148.88;100.00;74566.81;5033703;28;20022;-87
2022/09/08 10:42:53;;;;;;;19.70;17.73;;;;;;;-148.88;100.00;74570.88;5033464;28;20025;-87
2022/09/08 10:45:39;;;;;;;19.85;17.75;;;;;;;-148.88;100.00;74550.56;5034883;28;20025;-86
2022/09/08 10:48:19;;;;;;;21.67;18.80;;;;;;;-148.88;100.00;74540.41;5033333;28;20023;-86
2022/09/08 10:50:50;;;;;;;20.45;18.38;;;;;;;-148.88;100.00;74544.47;5033494;28;20504;-86
2022/09/08 10:53:36;;;;;;;19.83;17.80;;;;;;;-148.88;100.00;74530.25;5034689;28;20056;-88
2022/09/08 10:56:07;;;;;;;17.83;15.98;;;;;;;-148.88;100.00;74524.16;5033513;28;20483;-88
2022/09/08 10:59:30;;;;;;;17.75;16.00;;;;;;;-148.88;100.00;74509.94;5034849;28;20031;-86
2022/09/08 11:02:09;;;;;;;17.63;15.88;;;;;;;-148.88;100.00;74507.91;5015759;28;20468;-88
2022/09/08 11:05:07;;;;;;;17.92;16.13;;;;;;;-148.88;100.00;74489.66;5015522;28;20081;-87
2022/09/08 11:08:03;;;;;;;16.58;14.88;;;;;;;-148.88;100.00;74495.75;5034007;28;20110;-87
2022/09/08 11:11:11;;;;;;;16.30;14.70;;;;;;;-148.88;100.00;74501.81;5033452;28;20029;-87
2022/09/08 11:13:55;;;;;;;15.40;13.90;;;;;;;-148.88;100.00;74532.28;5032568;28;20049;-86
2022/09/08 11:16:44;;;;;;;16.17;14.48;;;;;;;-148.88;100.00;74534.31;5033464;28;20025;-87
2022/09/08 11:19:51;;;;;;;17.73;15.88;;;;;;;-148.88;100.00;74526.19;5033394;28;20395;-87
2022/09/08 11:22:47;;;;;;;16.30;14.70;;;;;;;-148.88;100.00;74509.94;5029107;28;20408;-87
2022/09/08 11:25:42;;;;;;;17.60;15.75;;;;;;;-148.88;100.00;74518.06;5033343;28;20542;-87
2022/09/08 11:28:35;;;;;;;18.00;16.10;;;;;;;-148.88;100.00;74503.84;5032727;28;20029;-87
2022/09/08 11:31:17;;;;;;;17.43;15.50;;;;;;;-148.88;100.00;74503.84;5032304;28;20033;-87
2022/09/08 11:33:54;;;;;;;18.13;15.25;;;;;;;-148.88;100.00;74530.25;5032698;28;20368;-88
2022/09/08 11:36:44;;;;;;;18.50;16.60;;;;;;;-148.88;100.00;74507.91;5032235;28;20036;-87
2022/09/08 11:39:22;;;;;;;18.08;16.33;;;;;;;-148.88;100.00;74511.97;5033647;28;20041;-87